Flight Track Log - Related Links

Times and Time Zones

All times are in EST time to prevent confusion due to time zone crossing. See the N445D flight status page for this flight to view local times or setup timezone preferences in your user account.

Time Position Orientation Groundspeed Altitude Reporting Facility
EST Latitude Longitude Course Direction KTS MPH feet Rate Location/Type
Thu 12:48:20 PM 26.0069 -80.2733 268° West 79 91 1,200  Level Miami Center
Thu 12:49:22 PM 26.0064 -80.2967 268° West 84 97 1,800 439 Climbing Miami Center
Thu 12:50:23 PM 26.0017 -80.3289 261° West 119 137 2,100 98 Climbing Miami Center
Thu 12:51:25 PM 25.9967 -80.3633 261° West 114 131 2,000 -49 Descending Miami Center
Thu 12:52:26 PM 25.9958 -80.3981 268° West 111 128 2,000  Level Miami Center
Thu 12:53:27 PM 26.0033 -80.4283 285° West 91 105 2,000  Level Miami Center
Thu 12:54:22 PM 26.0175 -80.4494 307° West 108 124 2,000 295 Level Miami Center
Thu 12:55:29 PM 26.0250 -80.4844 283° West 102 117 2,600 390 Climbing Miami Center
Thu 12:56:25 PM 26.0306 -80.5100 284° West 89 102 2,800 205 Climbing Miami Center
Thu 12:57:26 PM 26.0489 -80.5289 317° Northwest 96 110 3,000 98 Climbing Miami Center
Thu 12:58:28 PM 26.0761 -80.5322 354° North 96 110 3,000  Level Miami Center
Thu 12:59:35 PM 26.1053 -80.5353 355° North 97 112 3,000  Level Miami Center
Thu 01:00:36 PM 26.1306 -80.5269 16° North 95 109 3,000 49 Level Miami Center
Thu 01:01:38 PM 26.1497 -80.5044 46° Northeast 103 119 3,100 51 Climbing Miami Center
Thu 01:02:33 PM 26.1650 -80.4794 56° Northeast 103 119 3,100  Level Miami Center
Thu 01:03:40 PM 26.1906 -80.4639 29° Northeast 98 113 3,100  Level Miami Center
Thu 01:04:41 PM 26.2139 -80.4483 31° Northeast 97 112 3,100 -4 Level Miami Center
Thu 01:28:40 PM 26.4319 -80.1419 204° Southwest 109 125 3,000 -4 Descending Miami Center
Thu 01:29:00 PM 26.0364 -80.2152 204° Southwest  Level FlightAware Approximate
Thu 01:29:11 PM 26.4294 -80.1581 260° West 107 123 3,000  Level Miami Center
Thu 01:30:00 PM 26.0104 -80.2281 204° Southwest  Level FlightAware Approximate
Thu 01:30:12 PM 26.4267 -80.1906 265° West 104 120 3,100  Level Miami Center
Thu 01:31:00 PM 26.0000 -80.2333 204° Southwest  Level FlightAware Approximate
Thu 01:31:19 PM 26.3992 -80.2036 203° Southwest 136 157 3,100  Level Miami Center
Thu 01:32:00 PM 26.0012 -80.2407 204° Southwest  Level Estimated
Thu 01:32:21 PM 26.3639 -80.1981 172° South 132 152 3,100  Level Miami Center
Thu 01:33:00 PM 26.0000 -80.2333 204° Southwest  Level FlightAware Approximate
Thu 01:33:22 PM 26.3264 -80.1992 182° South 127 146 3,000  Level Miami Center
Thu 01:34:23 PM 26.2908 -80.1983 179° South 124 143 3,200 51 Climbing Miami Center
Thu 01:35:19 PM 26.2572 -80.1997 182° South 125 144 3,100 -51 Descending Miami Center
Thu 01:36:20 PM 26.2258 -80.2125 200° South 122 140 3,100 47 Level Miami Center
Thu 01:37:27 PM 26.1861 -80.2139 182° South 130 150 3,200 -49 Climbing Miami Center
Thu 01:38:22 PM 26.1547 -80.2153 182° South 131 151 3,000 -52 Descending Miami Center
Thu 01:39:23 PM 26.1189 -80.2258 195° South 125 144 3,100 49 Climbing Miami Center
Thu 01:40:24 PM 26.0856 -80.2247 178° South 121 139 3,100  Level Miami Center
Thu 01:41:25 PM 26.0500 -80.2192 172° South 127 146 3,100 -49 Level Miami Center
Thu 01:42:26 PM 26.0225 -80.2369 210° Southwest 135 155 3,000 -344 Descending Miami Center
Thu 01:43:27 PM 26.0031 -80.2689 236° Southwest 117 135 2,400 -469 Descending Miami Center
Thu 01:44:34 PM 25.9958 -80.3056 258° West 113 130 2,000 -140 Descending Miami Center
Thu 01:45:36 PM 25.9950 -80.3403 268° West 111 128 2,100  Climbing Miami Center
Thu 01:46:37 PM 25.9942 -80.3772 269° West 122 140 2,000  Descending Miami Center
Thu 01:47:38 PM 25.9953 -80.4142 272° West 117 135 2,100  Climbing Miami Center
Thu 01:48:39 PM 25.9964 -80.4533 272° West 119 137 2,000 -49 Descending Miami Center
Thu 01:49:40 PM 25.9956 -80.4881 268° West 117 135 2,000 49 Level Miami Center
Thu 01:50:42 PM 25.9947 -80.5272 269° West 117 135 2,100 49 Climbing Miami Center
Thu 01:51:43 PM 25.9856 -80.5572 251° West 126 145 2,100 -49 Level Miami Center
Thu 01:52:44 PM 25.9839 -80.5364 95° East 96 110 2,000  Descending Miami Center
Thu 01:53:46 PM 25.9908 -80.5089 74° East 92 106 2,100  Climbing Miami Center
Thu 01:54:47 PM 26.0000 -80.4789 71° East 101 116 2,000 -98 Descending Miami Center
Thu 01:55:49 PM 25.9989 -80.4419 92° East 114 131 1,900 -146 Descending Miami Center
Thu 01:56:50 PM 25.9956 -80.4094 97° East 99 114 1,700 -98 Descending Miami Center
Thu 01:57:52 PM 25.9961 -80.3794 89° East 99 114 1,700 49 Level Miami Center
Thu 01:58:53 PM 25.9969 -80.3517 88° East 86 99 1,800 -49 Climbing Miami Center
Thu 01:59:55 PM 25.9975 -80.3242 89° East 90 104 1,600 -341 Descending Miami Center
Thu 02:00:56 PM 25.9961 -80.2964 93° East 96 110 1,100 -492 Descending Miami Center
Thu 02:01:57 PM 25.9947 -80.2661 93° East 85 98 600 -372 Descending Miami Center
Thu 02:03:05 PM 25.9869 -80.2453 113° Southeast 62 71 300 -265 Descending Miami Center

Login

Don't have an account? Register now (free) for customized features, flight alerts, and more!